Terminal Aerodrome Forecast
Issued by NWS

Home | Current Version | Previous Version | Text Only | Print | Product List | Glossary Off
Versions: 1 2 3 4 5 6 7 8 9 10 11 12 13 14 15 16 17 18 19

000
FTUS43 KABR 221125 AAA
TAFMBG
TAF AMD
KMBG 221125Z 2211/2312 32010KT P6SM VCSH OVC090
     FM221800 36015G23KT P6SM BKN050
     FM230200 35008KT P6SM OVC050=

USA.gov is the U.S. government's official web portal to all federal, state and local government web resources and services.